Delcambre, Louisiana
Current Conditions -  °F | °C
As of 2:35 AM on Monday 22 Dec 2014 (Local Time) from KIYA Reporting Station
Haze Haze  
Wind Chill: 51°   Ceiling: 600
Heat Index: 51°   Visibility: 4mi
Dew Point: 51°   Wind: 0mph
Humidity: 99%   Direction: NA
Pressure: 29.88"   Gusts: NA
Location:  29.95°N, 91.99°W
Report Text: KIYA 220835Z AUTO 00000KT 4SM BR OVC006 11/11 A2988 RMK AO2 T01070105 TSNO
Loading
Personal Weather Stations






























Interactive Weather Map New forecast layout! Learn more

10-Day Weather Forecast

Advertisements
Track Severe Weather on mobile